Details for Lufthansa at EDDM




Go Back


Latest METAR
Local Time

EDDM 252150Z 06003KT CAVOK 14/12 Q1020 NOSIG

26/05/2018, 00:17:41

Description
Results
Lufthansa Logo
Number of Pilots based at EDDM
0 Pilots Based here
Number of Lufthansa Flights Departed from EDDM
1 Flights Departed
Number of Lufthansa Flights Arrived at EDDM
1 Flights Arrived
Number of Lufthansa Schedules Departing from EDDM
547 Schedules
Number of Lufthansa Schedules Arriving at EDDM
527 Schedules
Number of Lufthansa Schedules Departing from EDDM availible today
352 Schedules Today
Number of Lufthansa Schedules Arriving at EDDM availible today
353 Schedules Today
Average Landing Rate at EDDM
-179 fpm
Lufthansa Average Landing Rate at EDDM
-237 fpm
Total Fuel Purchased at EDDM by Lufthansa
3,823.78 kgs / 8,429.91 lbs

Pilots Based at EDDM


Pilot ID
Pilot Name
Pilot Rank
No. of Flights
No. of Flying Hours
There are no pilots assigned to this hub!   Will you be the first?
Content